Raivavae Airport

NTAV · French Polynesia

METAR NTAV · Raivavae Airport

25 六月 12:00 LT
23m
使用的METAR站距离机场732 km。
罗盘
风向 的 风向 的 风向 到 风向 200° Raivavae Airport 6/24
风: 7 kt, 3 beaufort

4 kt

6 kt
改变
0 ft 1.000 2.000 3.000 4.000 5.000
Cloud Cloud Cloud Cloud Cloud Cloud Cloud Cloud
OVC 4.400
METAR NTAA 252200Z AUTO 20007KT 170V230 9999 OVC044 27/21 Q1016 NOSIG

METAR Raivavae Airport - NTAV/RVV

该字段位于French Polynesia中。 该机场位于纬度-23,88529和经度-147,66190。 该机场有一条跑道: 6/24. 本场的ICAO机场代码为NTAV。 该机场的IATA代码为RVV。 机场在Tahiti FIR中。

该航空气象观测是针对Faa'a International Airport在2024年6月25日 12:00, 当地时间进行的。

机场观察

风向为200°,速度为7 kt。 风向在170°和230°之间变化。

可见度为10 km 或者更多。

有乌云密布在4.400 ft的高度。 破损或更高的上限为4.400 ft。

温度和风寒是27 °C。 热指数为29。 露点为21 °C,相对湿度为70%。 海平面上的气压为1016 hPa (QNH)。

白天

今天,太阳从06:33升起,在17:13降落。 这适用于Raivavae Airport,世界夏令时可能有所不同。 当地时间与世界标准时间之间的时差为-10 小时。 夏令时目前正在进行中。

公司介绍

我们没有关于这个机场的公司信息。

体会

到Vliegles.nl去找飞行课程,跳伞和其他飞行体验。 浏览页面,了解Raivavae Airport附近所有可用的活动。 你也可以使用搜索功能来寻找你所在地附近的特定飞行课程、跳伞或其他飞行体验。

跑道

Id 标题 侧风 逆风 侧风 %
6/24 073°-253° 6 kt 4 kt 80 %

逆风成分最大的方向会被突出显示,并用于横风计算。 这并不一定意味着这个方向在使用。

乌云

4.400 ft OVC 乌云密布

温度 & 天气

温度 27 °C
露点 21 °C
相对湿度 70%
热度指数 29 °C
Kp-index 1 (0-9)

白天

日出
06:28
中午
12:01
日落
17:33 (5:10)

小工具

你想在你的网站上有一个关于Raivavae Airport的当前航空天气(METAR)的小部件吗?

显示HTML代码
报告变更